createdAt,value
2023-03-22T00:02:16.617Z,11.60
2023-03-22T00:04:46.432Z,11.85
2023-03-22T00:07:14.545Z,11.83
2023-03-22T00:09:42.579Z,11.76
2023-03-22T00:12:10.995Z,11.80
2023-03-22T00:14:39.167Z,11.85
2023-03-22T00:17:07.178Z,11.80
2023-03-22T00:19:35.202Z,11.74
2023-03-22T00:22:06.282Z,11.52
2023-03-22T00:24:34.448Z,11.56
2023-03-22T00:27:02.568Z,11.51
2023-03-22T00:29:30.701Z,11.42
2023-03-22T00:31:58.662Z,11.46
2023-03-22T00:34:27.067Z,11.50
2023-03-22T00:36:56.468Z,11.55
2023-03-22T00:39:26.933Z,11.61
2023-03-22T00:41:54.955Z,11.63
2023-03-22T00:44:23.150Z,11.42
2023-03-22T00:46:51.441Z,11.23
2023-03-22T00:49:19.993Z,11.47
2023-03-22T00:51:48.079Z,11.47
2023-03-22T00:54:17.009Z,11.22
2023-03-22T00:56:46.592Z,11.29
2023-03-22T00:59:16.562Z,11.45
2023-03-22T01:01:44.734Z,11.44
2023-03-22T01:04:15.420Z,11.40
2023-03-22T01:06:43.909Z,11.39
2023-03-22T01:09:15.096Z,11.35
2023-03-22T01:11:44.211Z,11.32
2023-03-22T01:14:14.824Z,11.45
2023-03-22T01:16:43.096Z,11.20
2023-03-22T01:19:11.515Z,11.37
2023-03-22T01:21:39.591Z,11.42
2023-03-22T01:24:08.078Z,11.42
2023-03-22T01:26:37.684Z,11.28
2023-03-22T01:29:05.966Z,11.35
2023-03-22T01:31:35.627Z,11.22
2023-03-22T01:34:03.818Z,11.31
2023-03-22T01:36:31.891Z,11.40
2023-03-22T01:39:00.376Z,11.35
2023-03-22T01:41:28.541Z,11.38
2023-03-22T01:44:12.262Z,11.40
2023-03-22T01:46:42.197Z,11.37
2023-03-22T01:49:15.280Z,11.25
2023-03-22T01:51:44.383Z,11.44
2023-03-22T01:54:35.884Z,11.22
2023-03-22T01:57:18.901Z,11.35
2023-03-22T01:59:50.141Z,11.33
2023-03-22T02:02:30.877Z,11.36
2023-03-22T02:05:09.101Z,11.22
2023-03-22T02:07:38.304Z,11.39
2023-03-22T02:10:12.484Z,11.29
2023-03-22T02:13:02.061Z,11.16
2023-03-22T02:15:55.827Z,11.35
2023-03-22T02:18:59.802Z,11.33
2023-03-22T02:22:04.550Z,11.37
2023-03-22T02:24:55.627Z,11.24
2023-03-22T02:27:59.285Z,11.36
2023-03-22T02:30:53.527Z,11.14
2023-03-22T02:33:41.958Z,11.16
2023-03-22T02:36:40.112Z,11.26
2023-03-22T02:39:26.863Z,11.16
2023-03-22T02:42:09.326Z,11.20
2023-03-22T02:44:43.356Z,11.20
2023-03-22T02:47:22.805Z,11.20
2023-03-22T02:49:57.816Z,11.12
2023-03-22T02:52:34.117Z,11.18
2023-03-22T02:55:07.953Z,11.24
2023-03-22T02:57:42.999Z,11.41
2023-03-22T03:00:14.900Z,11.21
2023-03-22T03:02:48.487Z,11.33
2023-03-22T03:05:18.153Z,11.45
2023-03-22T03:07:51.549Z,11.37
2023-03-22T03:10:24.069Z,11.41
2023-03-22T03:12:51.988Z,11.26
2023-03-22T03:15:23.784Z,11.40
2023-03-22T03:18:06.318Z,11.26
2023-03-22T03:20:46.503Z,11.20
2023-03-22T03:23:25.462Z,11.28
2023-03-22T03:26:03.275Z,11.38
2023-03-22T03:28:40.032Z,11.32
2023-03-22T03:31:17.178Z,11.46
2023-03-22T03:33:54.050Z,11.41
2023-03-22T03:36:24.728Z,11.45
2023-03-22T03:38:55.757Z,11.36
2023-03-22T03:41:31.567Z,11.47
2023-03-22T03:44:01.038Z,11.56
2023-03-22T03:46:29.555Z,11.47
2023-03-22T03:48:59.385Z,11.53
2023-03-22T03:51:29.196Z,11.35
2023-03-22T03:53:57.415Z,11.24
2023-03-22T03:56:25.847Z,11.23
2023-03-22T03:58:56.010Z,11.41
2023-03-22T04:01:24.114Z,11.39
2023-03-22T04:04:04.247Z,11.50
2023-03-22T04:07:03.556Z,11.46
2023-03-22T04:09:34.412Z,11.55
2023-03-22T04:12:25.593Z,11.68
2023-03-22T04:15:13.843Z,11.60
2023-03-22T04:17:44.156Z,11.60
2023-03-22T04:20:14.002Z,11.55
2023-03-22T04:22:44.315Z,11.64
2023-03-22T04:25:18.107Z,11.51
2023-03-22T04:27:55.782Z,11.40
2023-03-22T04:30:27.684Z,11.30
2023-03-22T04:33:22.970Z,11.38
2023-03-22T04:36:15.963Z,11.51
2023-03-22T04:38:56.710Z,11.39
2023-03-22T04:41:25.674Z,11.41
2023-03-22T04:43:57.645Z,11.51
2023-03-22T04:46:27.174Z,11.55
2023-03-22T04:49:03.361Z,11.44
2023-03-22T04:51:33.463Z,11.46
2023-03-22T04:54:16.874Z,11.39
2023-03-22T04:56:46.061Z,11.55
2023-03-22T04:59:17.857Z,11.43
2023-03-22T05:01:47.780Z,11.40
2023-03-22T05:04:20.664Z,11.40
2023-03-22T05:06:51.994Z,11.42
2023-03-22T05:09:28.755Z,11.43
2023-03-22T05:11:57.875Z,11.50
2023-03-22T05:14:39.465Z,11.32
2023-03-22T05:17:11.209Z,11.51
2023-03-22T05:19:41.125Z,11.47
2023-03-22T05:22:12.467Z,11.65
2023-03-22T05:24:45.583Z,11.65
2023-03-22T05:27:31.195Z,11.43
2023-03-22T05:30:19.640Z,11.33
2023-03-22T05:32:57.730Z,11.51
2023-03-22T05:35:26.053Z,11.44
2023-03-22T05:37:56.653Z,11.44
2023-03-22T05:40:25.088Z,11.43
2023-03-22T05:42:54.350Z,11.37
2023-03-22T05:45:27.197Z,11.29
2023-03-22T05:48:25.124Z,11.26
2023-03-22T05:50:53.261Z,11.36
2023-03-22T05:53:22.102Z,11.16
2023-03-22T05:55:57.642Z,11.16
2023-03-22T05:58:29.061Z,11.41
2023-03-22T06:01:01.046Z,11.28
2023-03-22T06:03:49.381Z,11.36
2023-03-22T06:06:41.941Z,11.45
2023-03-22T06:09:17.578Z,11.45
2023-03-22T06:11:48.628Z,11.59
2023-03-22T06:14:17.694Z,11.47
2023-03-22T06:17:05.937Z,11.52
2023-03-22T06:19:35.500Z,11.45
2023-03-22T06:22:05.928Z,11.37
2023-03-22T06:24:36.790Z,11.45
2023-03-22T06:27:06.397Z,11.54
2023-03-22T06:29:34.570Z,11.49
2023-03-22T06:32:05.327Z,11.44
2023-03-22T06:34:33.416Z,11.39
2023-03-22T06:37:03.892Z,11.44
2023-03-22T06:39:35.356Z,11.42
2023-03-22T06:42:04.847Z,11.30
2023-03-22T06:44:32.829Z,11.43
2023-03-22T06:47:19.959Z,11.39
2023-03-22T06:50:07.503Z,11.50
2023-03-22T06:52:55.682Z,11.39
2023-03-22T06:55:24.760Z,11.46
2023-03-22T06:57:52.898Z,11.45
2023-03-22T07:00:22.215Z,11.43
2023-03-22T07:02:52.692Z,11.49
2023-03-22T07:05:29.789Z,11.46
2023-03-22T07:07:59.456Z,11.58
2023-03-22T07:10:28.807Z,11.41
2023-03-22T07:12:58.025Z,11.40
2023-03-22T07:15:26.104Z,11.60
2023-03-22T07:18:00.923Z,11.43
2023-03-22T07:20:30.027Z,11.47
2023-03-22T07:22:59.638Z,11.58
2023-03-22T07:25:31.206Z,11.58
2023-03-22T07:28:13.025Z,11.53
2023-03-22T07:30:41.607Z,11.58
2023-03-22T07:33:11.572Z,11.54
2023-03-22T07:35:40.772Z,11.61
2023-03-22T07:38:10.172Z,11.58
2023-03-22T07:40:39.209Z,11.81
2023-03-22T07:43:08.264Z,11.70
2023-03-22T07:45:56.800Z,11.64
2023-03-22T07:48:43.433Z,11.59
2023-03-22T07:51:31.300Z,11.37
2023-03-22T07:54:01.628Z,11.42
2023-03-22T07:56:31.924Z,11.64
2023-03-22T07:58:59.959Z,11.58
2023-03-22T08:01:28.173Z,11.67
2023-03-22T08:04:20.923Z,11.45
2023-03-22T08:07:10.100Z,11.70
2023-03-22T08:09:40.245Z,11.93
2023-03-22T08:12:09.036Z,11.79
2023-03-22T08:14:37.957Z,11.77
2023-03-22T08:17:11.021Z,11.80
2023-03-22T08:19:39.649Z,11.86
2023-03-22T08:22:11.949Z,11.68
2023-03-22T08:24:59.766Z,11.58
2023-03-22T08:27:31.374Z,11.68
2023-03-22T08:30:00.914Z,11.79
2023-03-22T08:32:28.868Z,11.90
2023-03-22T08:34:58.462Z,11.73
2023-03-22T08:37:26.791Z,11.69
2023-03-22T08:39:54.946Z,11.92
2023-03-22T08:42:39.286Z,12.06
2023-03-22T08:45:10.301Z,11.94
2023-03-22T08:47:44.640Z,11.79
2023-03-22T08:50:13.854Z,11.82
2023-03-22T08:52:51.136Z,11.79
2023-03-22T08:55:26.377Z,11.66
2023-03-22T08:58:25.364Z,11.83
2023-03-22T09:01:22.827Z,11.87
2023-03-22T09:03:58.040Z,11.94
2023-03-22T09:06:26.874Z,11.98
2023-03-22T09:08:55.275Z,11.94
2023-03-22T09:11:24.799Z,11.88
2023-03-22T09:13:54.326Z,11.81
2023-03-22T09:16:22.766Z,11.73
2023-03-22T09:18:51.405Z,11.88
2023-03-22T09:21:23.102Z,12.05
2023-03-22T09:23:59.450Z,11.90
2023-03-22T09:26:38.459Z,11.76
2023-03-22T09:29:08.798Z,11.82
2023-03-22T09:31:37.038Z,11.84
2023-03-22T09:34:17.896Z,11.69
2023-03-22T09:36:46.224Z,11.83
2023-03-22T09:39:16.347Z,11.77
2023-03-22T09:41:51.807Z,11.78
2023-03-22T09:44:25.553Z,11.85
2023-03-22T09:46:56.635Z,11.81
2023-03-22T09:49:29.641Z,11.84
2023-03-22T09:51:58.046Z,11.71
2023-03-22T09:54:33.182Z,11.59
2023-03-22T09:57:06.159Z,11.75
2023-03-22T09:59:41.920Z,11.76
2023-03-22T10:02:36.576Z,11.71
2023-03-22T10:05:15.348Z,11.68
2023-03-22T10:08:09.133Z,11.50
2023-03-22T10:10:41.879Z,11.45
2023-03-22T10:13:19.840Z,11.46
2023-03-22T10:15:52.289Z,11.31
2023-03-22T10:18:23.235Z,11.21
2023-03-22T10:20:58.882Z,11.16
2023-03-22T10:23:32.603Z,11.19
2023-03-22T10:26:03.671Z,11.29
2023-03-22T10:28:38.673Z,11.12
2023-03-22T10:31:14.205Z,11.18
2023-03-22T10:33:50.580Z,11.01
2023-03-22T10:36:23.587Z,11.12
2023-03-22T10:38:55.771Z,11.21
2023-03-22T10:41:26.703Z,11.05
2023-03-22T10:43:59.426Z,11.07
2023-03-22T10:46:32.281Z,11.36
2023-03-22T10:49:03.724Z,10.93
2023-03-22T10:51:36.902Z,10.99
2023-03-22T10:54:06.015Z,11.00
2023-03-22T10:56:34.095Z,10.94
2023-03-22T10:59:02.063Z,10.93
2023-03-22T11:01:33.493Z,11.05
2023-03-22T11:04:10.131Z,10.98
2023-03-22T11:06:44.287Z,11.13
2023-03-22T11:09:15.820Z,11.20
2023-03-22T11:11:52.110Z,11.07
2023-03-22T11:14:28.827Z,11.09
2023-03-22T11:17:02.099Z,11.05
2023-03-22T11:19:34.769Z,10.95
2023-03-22T11:22:07.101Z,11.12
2023-03-22T11:24:36.095Z,11.19
2023-03-22T11:27:06.854Z,11.10
2023-03-22T11:29:41.841Z,11.10
2023-03-22T11:32:26.474Z,11.15
2023-03-22T11:35:03.458Z,11.02
2023-03-22T11:37:31.567Z,11.03
2023-03-22T11:40:05.316Z,11.11
2023-03-22T11:42:35.326Z,11.24
2023-03-22T11:45:04.003Z,11.22
2023-03-22T11:47:38.243Z,11.21
2023-03-22T11:50:09.481Z,11.48
2023-03-22T11:52:38.850Z,11.16
2023-03-22T11:55:07.350Z,10.97
2023-03-22T11:57:38.051Z,11.29
2023-03-22T12:00:15.269Z,11.29
2023-03-22T12:02:49.853Z,11.24
2023-03-22T12:05:22.969Z,11.19
2023-03-22T12:07:57.050Z,11.20
2023-03-22T12:10:29.946Z,11.36
2023-03-22T12:13:01.902Z,11.42
2023-03-22T12:15:32.792Z,11.37
2023-03-22T12:18:09.063Z,11.29
2023-03-22T12:20:43.283Z,11.32
2023-03-22T12:23:16.529Z,11.42
2023-03-22T12:25:50.711Z,11.44
2023-03-22T12:28:22.019Z,11.32
2023-03-22T12:30:53.105Z,11.21
2023-03-22T12:33:26.642Z,11.33
2023-03-22T12:35:58.727Z,11.57
2023-03-22T12:38:35.499Z,11.45
2023-03-22T12:41:05.041Z,11.45
2023-03-22T12:43:44.109Z,11.60
2023-03-22T12:46:18.417Z,11.50
2023-03-22T12:48:49.961Z,11.52
2023-03-22T12:51:18.100Z,11.48
2023-03-22T12:53:49.029Z,11.45
2023-03-22T12:56:19.682Z,11.52
2023-03-22T12:58:50.545Z,11.37
2023-03-22T13:01:26.531Z,11.29
2023-03-22T13:03:57.770Z,11.29
2023-03-22T13:06:58.755Z,11.40
2023-03-22T13:09:41.475Z,11.47
2023-03-22T13:12:31.785Z,11.37
2023-03-22T13:15:03.474Z,11.28
2023-03-22T13:17:44.825Z,11.09
2023-03-22T13:20:31.225Z,11.19
2023-03-22T13:23:26.248Z,11.24
2023-03-22T13:26:00.107Z,11.20
2023-03-22T13:28:29.607Z,11.02
2023-03-22T13:30:59.922Z,11.16
2023-03-22T13:33:30.046Z,11.20
2023-03-22T13:36:01.203Z,11.17
2023-03-22T13:38:34.920Z,11.23
2023-03-22T13:41:05.150Z,11.31
2023-03-22T13:43:34.960Z,11.38
2023-03-22T13:46:14.895Z,11.38
2023-03-22T13:48:55.022Z,11.26
2023-03-22T13:51:31.069Z,11.30
2023-03-22T13:54:05.774Z,11.25
2023-03-22T13:56:48.614Z,11.22
2023-03-22T13:59:21.198Z,11.23
2023-03-22T14:01:52.409Z,11.22
2023-03-22T14:04:24.566Z,11.22
2023-03-22T14:06:56.284Z,11.10
2023-03-22T14:09:32.507Z,11.03
2023-03-22T14:12:04.733Z,11.13
2023-03-22T14:14:34.956Z,11.07
2023-03-22T14:17:06.886Z,11.06
2023-03-22T14:19:36.071Z,11.17
